ROMMA est une association bénévole à but non lucratif. Votre soutien est indispensable : ADHERER à ROMMA ou FAIRE un DON

Montélimar - (26, Drôme)

Basse vallée du Rhône (88 m)   Longitude: 04° 45' E   Latitude: 44° 32' N Station partenaire n°164
 

Détail journalier du     <<     >>

Température Precipitation Humidité Pression Vent Dir Rafale Dir. rafale Ensol.
Heure (°C) (mm) (%) (hPa) (km/h) (km/h) (min)
01:00 23.3052101411NE34NNE0
02:00 22.3059101414NE31NE0
03:00 21.7062101413NE29NE0
04:00 20.9061101413NE34ENE0
05:00 20.3060101419NE45NE0
06:00 19.5060101418NE37ENE0
07:00 18.7063101420NE42ENE0
08:00 18.1065101518NE37NE0
09:00 18.4066101519NE42NE58
10:00 19.3063101520NE42NE60
11:00 21.2058101517N39ENE60
12:00 22.7056101518NE48ENE60
13:00 24.2052101420NE44NE60
14:00 25.8046101421N42NNO51
15:00 26.6044101421NE42N57
16:00 26.3046101324NE47N60
17:00 26.4046101322N48ENE60
18:00 24.9048101422N47N8
19:00 23.7052101422N48NNO0
20:00 22.8054101421N48NNE0
21:00 22.0056101518NE40N0
22:00 21.7056101614N37NE0
23:00 20.705710171---21NNE0
minuit 20.205610172---23NNE0

Graphique du 18-09-2019

 

Serveur OMMA